Time;durP1;ratioP1;P1;durP2;ratioP2;P2;SDS_P1;SDS_P2;PMS_P1;PMS_P2;Temp;Humidity;BMP_temperature;BMP_pressure;BME280_temperature;BME280_humidity;BME280_pressure;Samples;Min_cycle;Max_cycle;Signal;HPM_P1;HPM_P2
2023/03/05 00:01:21;;;;;;;11.18;3.55;;;;;;;1.57;100.00;102173.50;5021647;28;20029;-55
2023/03/05 00:03:46;;;;;;;9.18;4.10;;;;;;;1.91;100.00;102240.97;5063830;28;20113;-51
2023/03/05 00:06:12;;;;;;;14.05;4.93;;;;;;;1.94;100.00;102230.69;5053019;28;20470;-52
2023/03/05 00:08:37;;;;;;;12.02;5.90;;;;;;;2.00;100.00;102227.34;5051560;28;20079;-53
2023/03/05 00:11:08;;;;;;;12.35;5.85;;;;;;;2.09;100.00;102222.38;5040874;28;20037;-53
2023/03/05 00:13:33;;;;;;;18.98;6.28;;;;;;;1.70;100.00;102142.69;5053012;28;20056;-55
2023/03/05 00:16:02;;;;;;;10.48;4.55;;;;;;;2.23;100.00;102215.78;5051995;28;20437;-52
2023/03/05 00:18:27;;;;;;;8.98;3.83;;;;;;;2.28;100.00;102210.72;5047689;28;20131;-54
2023/03/05 00:20:53;;;;;;;8.27;3.22;;;;;;;2.27;100.00;102209.84;5051883;28;20128;-52
2023/03/05 00:23:18;;;;;;;13.30;3.60;;;;;;;2.03;100.00;102170.28;5052971;28;20041;-47
2023/03/05 00:25:45;;;;;;;10.18;3.30;;;;;;;1.81;100.00;102145.53;5040025;28;20064;-48
2023/03/05 00:28:11;;;;;;;8.02;3.13;;;;;;;1.88;100.00;102169.91;5053141;28;20037;-50
2023/03/05 00:30:36;;;;;;;8.35;2.92;;;;;;;1.99;100.00;102200.50;5049668;28;20036;-48
2023/03/05 00:33:01;;;;;;;8.52;2.83;;;;;;;1.94;100.00;102203.81;5049007;28;20040;-48
2023/03/05 00:35:27;;;;;;;9.27;3.40;;;;;;;1.93;100.00;102192.56;5039098;28;20120;-50
2023/03/05 00:37:53;;;;;;;10.73;2.83;;;;;;;1.74;100.00;102151.44;5045941;28;20043;-49
2023/03/05 00:40:18;;;;;;;9.75;3.28;;;;;;;1.61;100.00;102126.88;5030203;28;20045;-48
2023/03/05 00:42:43;;;;;;;10.43;2.90;;;;;;;2.05;100.00;102192.84;5046096;28;20569;-49
2023/03/05 00:45:09;;;;;;;14.85;2.90;;;;;;;1.62;100.00;102114.78;5033484;28;20164;-49
2023/03/05 00:47:35;;;;;;;9.02;2.90;;;;;;;1.94;100.00;102170.94;5032539;28;20048;-45
2023/03/05 00:50:00;;;;;;;11.57;2.55;;;;;;;1.92;100.00;102195.13;5040190;28;20048;-48
2023/03/05 00:52:26;;;;;;;10.30;2.90;;;;;;;1.76;100.00;102177.41;5042012;28;20399;-47
2023/03/05 00:54:51;;;;;;;11.85;2.83;;;;;;;1.68;100.00;102165.13;5038862;28;20049;-50
2023/03/05 00:57:17;;;;;;;12.38;2.50;;;;;;;1.25;100.00;102107.81;5041997;28;20033;-49
2023/03/05 00:59:42;;;;;;;9.68;2.58;;;;;;;1.62;100.00;102184.84;5051394;28;20123;-47
2023/03/05 01:02:08;;;;;;;8.98;2.70;;;;;;;1.55;100.00;102180.34;5034429;28;20143;-50
2023/03/05 01:04:33;;;;;;;7.18;2.47;;;;;;;1.48;100.00;102171.53;5037497;28;20076;-50
2023/03/05 01:06:59;;;;;;;9.85;3.78;;;;;;;1.53;100.00;102177.72;5031033;28;20069;-47
2023/03/05 01:09:24;;;;;;;9.30;3.17;;;;;;;1.54;100.00;102166.50;5038200;28;20037;-50
2023/03/05 01:11:50;;;;;;;7.20;2.63;;;;;;;1.39;100.00;102132.38;5051523;28;20041;-51
2023/03/05 01:14:16;;;;;;;8.75;2.72;;;;;;;1.10;100.00;102077.19;5045097;28;20120;-49
2023/03/05 01:16:42;;;;;;;9.90;2.80;;;;;;;1.15;100.00;102079.88;5032377;28;20172;-50
2023/03/05 01:19:07;;;;;;;8.80;2.90;;;;;;;1.19;100.00;102080.84;5051530;28;20051;-51
2023/03/05 01:21:34;;;;;;;9.77;2.70;;;;;;;1.18;100.00;102063.50;5047652;28;20038;-47
2023/03/05 01:24:00;;;;;;;8.57;2.35;;;;;;;1.69;100.00;102151.28;5045151;28;20026;-46
2023/03/05 01:26:25;;;;;;;6.63;2.72;;;;;;;1.70;100.00;102150.47;5035309;28;20045;-52
2023/03/05 01:28:51;;;;;;;6.50;2.80;;;;;;;1.29;100.00;102064.66;5049782;28;20423;-47
2023/03/05 01:31:16;;;;;;;15.35;3.55;;;;;;;1.86;100.00;102150.84;5052254;28;20507;-46
2023/03/05 01:33:41;;;;;;;14.00;3.17;;;;;;;1.57;100.00;102080.97;5028825;28;20488;-47
2023/03/05 01:36:13;;;;;;;9.30;2.90;;;;;;;1.48;100.00;102054.78;5046743;28;20030;-49
2023/03/05 01:38:40;;;;;;;6.32;2.22;;;;;;;2.03;100.00;102127.03;5039754;28;20037;-50
2023/03/05 01:41:06;;;;;;;7.45;2.65;;;;;;;2.11;100.00;102137.56;5050848;28;20036;-50
2023/03/05 01:43:31;;;;;;;6.38;1.77;;;;;;;1.68;100.00;102043.16;5039159;28;20504;-48
2023/03/05 01:46:12;;;;;;;8.73;2.03;;;;;;;2.28;100.00;102137.97;5047632;28;20033;-51
2023/03/05 01:48:39;;;;;;;5.25;1.77;;;;;;;2.31;100.00;102120.69;5037972;28;20112;-48
2023/03/05 01:51:05;;;;;;;7.13;2.60;;;;;;;1.99;100.00;102057.66;5033518;28;20032;-51
2023/03/05 01:53:30;;;;;;;7.57;2.22;;;;;;;2.41;100.00;102116.59;5029769;28;20234;-50
2023/03/05 01:55:56;;;;;;;10.25;2.17;;;;;;;2.26;100.00;102085.97;5049914;28;20033;-46
2023/03/05 01:58:22;;;;;;;6.78;2.05;;;;;;;2.04;100.00;102027.47;5052042;28;20024;-49
2023/03/05 02:00:50;;;;;;;10.23;2.20;;;;;;;2.39;100.00;102082.78;5050542;28;20053;-47
2023/03/05 02:03:15;;;;;;;11.30;2.60;;;;;;;2.11;100.00;102020.69;5031637;28;20056;-48
2023/03/05 02:05:44;;;;;;;10.43;2.30;;;;;;;2.02;100.00;102002.31;5050605;28;20040;-47
2023/03/05 02:08:12;;;;;;;14.50;2.30;;;;;;;1.93;100.00;102000.41;5050575;28;20404;-50
2023/03/05 02:10:40;;;;;;;9.23;2.10;;;;;;;1.90;100.00;102002.09;5049851;28;20040;-52
2023/03/05 02:13:08;;;;;;;4.63;1.75;;;;;;;2.18;100.00;102064.16;5050167;28;20507;-53
2023/03/05 02:15:34;;;;;;;8.52;1.90;;;;;;;2.12;100.00;102066.63;5049145;28;20029;-50
2023/03/05 02:18:00;;;;;;;10.32;1.98;;;;;;;2.04;100.00;102060.38;5042611;28;20056;-51
2023/03/05 02:20:28;;;;;;;6.88;1.92;;;;;;;1.69;100.00;102021.50;5032847;28;20041;-48
2023/03/05 02:22:53;;;;;;;12.20;2.10;;;;;;;1.83;100.00;102059.91;5031650;28;20071;-50
2023/03/05 02:25:25;;;;;;;9.68;2.08;;;;;;;1.77;100.00;102054.56;5035168;28;20540;-51
2023/03/05 02:28:05;;;;;;;13.98;2.30;;;;;;;1.80;100.00;102058.13;5037633;28;20037;-52
2023/03/05 02:30:30;;;;;;;12.63;2.25;;;;;;;1.77;100.00;102054.56;5031440;28;20064;-50
2023/03/05 02:32:56;;;;;;;4.93;1.70;;;;;;;1.19;100.00;101966.75;5050253;28;20378;-50
2023/03/05 02:35:21;;;;;;;7.80;1.90;;;;;;;1.58;100.00;102041.16;5049533;28;20037;-47
2023/03/05 02:37:47;;;;;;;9.38;2.00;;;;;;;1.06;100.00;101950.00;5048565;28;20476;-48
2023/03/05 02:40:13;;;;;;;7.07;1.83;;;;;;;1.14;100.00;101949.34;5045945;28;20102;-46
2023/03/05 02:42:38;;;;;;;8.20;2.35;;;;;;;1.14;100.00;101938.97;5035959;28;20132;-51
2023/03/05 02:45:04;;;;;;;7.57;1.95;;;;;;;1.50;100.00;101995.13;5047002;28;20480;-49
2023/03/05 02:47:30;;;;;;;9.10;2.30;;;;;;;1.86;100.00;102026.22;5038536;28;20033;-51
2023/03/05 02:49:56;;;;;;;5.15;2.15;;;;;;;1.95;100.00;102026.44;5045413;28;20116;-51
2023/03/05 02:52:24;;;;;;;11.15;2.53;;;;;;;1.56;100.00;101943.38;5050504;28;20152;-48
2023/03/05 02:54:50;;;;;;;7.22;2.03;;;;;;;1.58;100.00;101928.69;5055711;28;20440;-48
2023/03/05 02:57:16;;;;;;;11.68;2.15;;;;;;;2.12;100.00;102010.34;5053933;28;20059;-48
2023/03/05 02:59:41;;;;;;;9.43;1.80;;;;;;;2.17;100.00;102013.91;5055376;28;20100;-46
2023/03/05 03:02:07;;;;;;;5.20;1.77;;;;;;;1.87;100.00;101942.31;5057839;28;20041;-49
2023/03/05 03:04:32;;;;;;;6.68;2.00;;;;;;;2.25;100.00;101995.88;5053309;28;20373;-50
2023/03/05 03:06:57;;;;;;;8.05;2.38;;;;;;;1.72;100.00;101895.28;5046190;28;20499;-49
2023/03/05 03:09:23;;;;;;;8.65;2.13;;;;;;;2.42;100.00;102001.41;5038892;28;20381;-48
2023/03/05 03:11:48;;;;;;;8.52;2.33;;;;;;;2.50;100.00;102000.72;5035928;28;20095;-49
2023/03/05 03:14:13;;;;;;;12.88;2.58;;;;;;;2.55;100.00;101986.06;5050182;28;20079;-48
2023/03/05 03:16:38;;;;;;;5.32;2.25;;;;;;;2.47;100.00;101958.19;5038453;28;20471;-49
2023/03/05 03:19:04;;;;;;;10.57;2.42;;;;;;;2.67;100.00;101981.09;5051859;28;20547;-50
2023/03/05 03:21:30;;;;;;;10.32;1.73;;;;;;;2.83;100.00;101995.25;5018792;28;20045;-48
2023/03/05 03:23:55;;;;;;;7.68;2.13;;;;;;;2.43;100.00;101915.69;5038026;28;20464;-49
2023/03/05 03:26:21;;;;;;;7.13;1.63;;;;;;;2.92;100.00;101984.97;5051836;28;20025;-51
2023/03/05 03:28:46;;;;;;;7.60;1.58;;;;;;;2.50;100.00;101903.66;5042822;28;20037;-49
2023/03/05 03:31:11;;;;;;;5.63;1.98;;;;;;;3.00;100.00;101987.72;5053814;28;20079;-52
2023/03/05 03:33:37;;;;;;;5.28;1.95;;;;;;;2.91;100.00;101971.97;5048537;28;20060;-49
2023/03/05 03:36:03;;;;;;;11.50;2.38;;;;;;;2.59;100.00;101911.63;5046858;28;20076;-50
2023/03/05 03:38:29;;;;;;;7.53;2.03;;;;;;;2.93;100.00;101972.84;5048357;28;20169;-48
2023/03/05 03:40:54;;;;;;;9.35;1.88;;;;;;;2.93;100.00;101970.25;5051933;28;20060;-49
2023/03/05 03:43:20;;;;;;;7.90;1.70;;;;;;;2.90;100.00;101983.22;5053654;28;20045;-48
2023/03/05 03:45:45;;;;;;;5.38;1.55;;;;;;;2.86;100.00;101978.81;5054582;28;20163;-51
2023/03/05 03:48:11;;;;;;;10.30;2.40;;;;;;;2.76;100.00;101975.19;5052616;28;20087;-48
2023/03/05 03:50:40;;;;;;;9.73;1.83;;;;;;;2.26;100.00;101886.81;5041113;28;20041;-45
2023/03/05 03:53:06;;;;;;;7.35;1.95;;;;;;;2.61;100.00;101960.19;5049283;28;20036;-51
2023/03/05 03:55:32;;;;;;;13.25;2.33;;;;;;;2.16;100.00;101879.69;5050564;28;20098;-49
2023/03/05 03:57:57;;;;;;;8.32;2.35;;;;;;;2.32;100.00;101899.03;5051762;28;20455;-49
2023/03/05 04:00:22;;;;;;;8.35;1.88;;;;;;;2.61;100.00;101952.41;5041113;28;20128;-48
2023/03/05 04:02:48;;;;;;;12.35;2.35;;;;;;;2.21;100.00;101880.66;5047232;28;20052;-45
2023/03/05 04:05:13;;;;;;;6.30;1.75;;;;;;;2.18;100.00;101869.34;5043048;28;20459;-49
2023/03/05 04:07:39;;;;;;;11.00;2.08;;;;;;;2.60;100.00;101935.03;5051399;28;20040;-46
2023/03/05 04:10:04;;;;;;;6.80;1.73;;;;;;;2.61;100.00;101939.41;5045011;28;20068;-49
2023/03/05 04:12:30;;;;;;;9.07;1.98;;;;;;;1.17;100.00;101683.19;5036203;28;20032;-49
2023/03/05 04:14:55;;;;;;;9.40;2.05;;;;;;;2.52;100.00;101931.44;5052908;28;20060;-50
2023/03/05 04:17:20;;;;;;;3.83;1.67;;;;;;;2.44;100.00;101938.22;5047984;28;20079;-51
2023/03/05 04:19:46;;;;;;;6.55;1.67;;;;;;;2.32;100.00;101934.53;5051009;28;20513;-47
2023/03/05 04:22:12;;;;;;;10.13;1.98;;;;;;;1.72;100.00;101853.75;5052549;28;20033;-49
2023/03/05 04:24:38;;;;;;;7.20;2.30;;;;;;;2.09;100.00;101926.31;5052642;28;20465;-46
2023/03/05 04:27:04;;;;;;;4.45;1.55;;;;;;;1.67;100.00;101883.06;5052362;28;20060;-52
2023/03/05 04:29:29;;;;;;;8.65;1.88;;;;;;;1.92;100.00;101920.78;5051837;28;20045;-49
2023/03/05 04:31:54;;;;;;;7.68;2.00;;;;;;;1.86;100.00;101912.00;5052408;28;20449;-47
2023/03/05 04:34:20;;;;;;;4.70;2.13;;;;;;;1.79;100.00;101913.59;5051706;28;20353;-48
2023/03/05 04:36:45;;;;;;;5.97;1.98;;;;;;;1.36;100.00;101846.09;5052364;28;20509;-51
2023/03/05 04:39:11;;;;;;;5.38;2.15;;;;;;;1.67;100.00;101915.91;5049554;28;20298;-50
2023/03/05 04:41:36;;;;;;;6.50;1.70;;;;;;;1.56;100.00;101915.72;5052560;28;20139;-50
2023/03/05 04:44:01;;;;;;;11.88;2.22;;;;;;;1.40;100.00;101902.38;5052451;28;20166;-50
2023/03/05 04:46:27;;;;;;;7.45;2.40;;;;;;;1.09;100.00;101859.31;5052571;28;20200;-48
2023/03/05 04:48:52;;;;;;;5.20;2.30;;;;;;;1.11;100.00;101868.88;5053319;28;20033;-46
2023/03/05 04:51:18;;;;;;;7.85;2.88;;;;;;;1.17;100.00;101875.91;5053152;28;20044;-48
2023/03/05 04:53:43;;;;;;;10.07;2.47;;;;;;;1.39;100.00;101908.41;5050412;28;20142;-45
2023/03/05 04:56:09;;;;;;;10.60;2.85;;;;;;;1.25;100.00;101868.31;5051792;28;20421;-50
2023/03/05 04:58:34;;;;;;;5.82;2.35;;;;;;;1.36;100.00;101853.88;5052283;28;20088;-51
2023/03/05 05:01:01;;;;;;;7.95;1.85;;;;;;;1.35;100.00;101832.22;5051997;28;20045;-52
2023/03/05 05:03:26;;;;;;;5.50;1.60;;;;;;;1.60;100.00;101839.69;5053218;28;20090;-51
2023/03/05 05:05:56;;;;;;;6.57;2.22;;;;;;;1.91;100.00;101854.13;5052592;28;20555;-50
2023/03/05 05:08:22;;;;;;;4.57;1.52;;;;;;;2.14;100.00;101878.78;5051740;28;20114;-52
2023/03/05 05:10:58;;;;;;;5.63;1.75;;;;;;;2.07;100.00;101858.72;5051706;28;20040;-52
2023/03/05 05:13:23;;;;;;;4.03;1.58;;;;;;;1.69;100.00;101785.34;5034328;28;20186;-47
2023/03/05 05:15:49;;;;;;;11.27;1.67;;;;;;;2.08;100.00;101876.06;5051943;28;20226;-47
2023/03/05 05:18:14;;;;;;;6.97;2.10;;;;;;;1.44;100.00;101769.28;5052944;28;20158;-47
2023/03/05 05:20:39;;;;;;;7.53;1.92;;;;;;;1.92;100.00;101861.06;5052500;28;20124;-49
2023/03/05 05:23:05;;;;;;;7.57;2.40;;;;;;;1.92;100.00;101874.06;5040119;28;20396;-50
2023/03/05 05:25:30;;;;;;;9.70;4.40;;;;;;;1.88;100.00;101876.53;5032193;28;20077;-48
2023/03/05 05:27:55;;;;;;;8.35;4.15;;;;;;;1.81;100.00;101865.16;5032595;28;20120;-46
2023/03/05 05:30:20;;;;;;;7.65;2.28;;;;;;;1.67;100.00;101857.09;5030961;28;20106;-51
2023/03/05 05:32:46;;;;;;;5.68;2.55;;;;;;;1.78;100.00;101874.63;5049041;28;20033;-49
2023/03/05 05:35:11;;;;;;;7.53;2.85;;;;;;;1.75;100.00;101859.00;5051740;28;20388;-52
2023/03/05 05:37:36;;;;;;;5.20;2.10;;;;;;;1.72;100.00;101859.81;5050936;28;20047;-46
2023/03/05 05:40:04;;;;;;;4.82;1.67;;;;;;;1.69;100.00;101860.59;5052476;28;20499;-51
2023/03/05 05:42:29;;;;;;;5.07;1.92;;;;;;;1.73;100.00;101861.53;5049108;28;20114;-47
2023/03/05 05:44:55;;;;;;;5.05;2.00;;;;;;;1.66;100.00;101839.78;5051797;28;20468;-48
2023/03/05 05:47:20;;;;;;;4.95;2.00;;;;;;;1.78;100.00;101846.94;5050839;28;20047;-47
2023/03/05 05:49:45;;;;;;;6.43;1.75;;;;;;;1.85;100.00;101850.53;5048178;28;20040;-48
2023/03/05 05:52:12;;;;;;;2.63;1.55;;;;;;;1.90;100.00;101865.34;5048429;28;20029;-47
2023/03/05 05:54:37;;;;;;;11.32;2.20;;;;;;;1.92;100.00;101840.31;5050227;28;20072;-49
2023/03/05 05:57:03;;;;;;;6.20;2.42;;;;;;;1.59;100.00;101772.16;5050872;28;20444;-51
2023/03/05 05:59:28;;;;;;;6.07;2.22;;;;;;;1.46;100.00;101755.50;5052001;28;20041;-49
2023/03/05 06:01:53;;;;;;;5.07;1.70;;;;;;;2.12;100.00;101841.53;5066580;28;20041;-50
2023/03/05 06:04:19;;;;;;;10.65;2.65;;;;;;;2.03;100.00;101820.59;5035481;28;20029;-50
2023/03/05 06:06:44;;;;;;;14.00;2.78;;;;;;;2.22;100.00;101842.53;5027937;28;20043;-48
2023/03/05 06:09:09;;;;;;;10.98;2.38;;;;;;;1.87;100.00;101765.78;5045606;28;20034;-50
2023/03/05 06:11:36;;;;;;;3.42;1.52;;;;;;;2.27;100.00;101809.75;5050933;28;20041;-49
2023/03/05 06:14:02;;;;;;;6.20;2.40;;;;;;;2.34;100.00;101813.31;5051805;28;20082;-48
2023/03/05 06:16:28;;;;;;;4.90;1.55;;;;;;;2.45;100.00;101825.63;5050375;28;20029;-51
2023/03/05 06:18:53;;;;;;;5.30;1.70;;;;;;;2.57;100.00;101837.97;5057132;28;20048;-49
2023/03/05 06:21:20;;;;;;;6.18;1.95;;;;;;;2.50;100.00;101829.19;5046710;28;20048;-52
2023/03/05 06:23:45;;;;;;;7.70;1.42;;;;;;;2.16;100.00;101761.94;5061217;28;20040;-50
2023/03/05 06:26:13;;;;;;;4.05;1.30;;;;;;;2.53;100.00;101812.75;5052682;28;20484;-50
2023/03/05 06:28:39;;;;;;;5.78;1.13;;;;;;;2.61;100.00;101835.44;5030513;28;20052;-53
2023/03/05 06:31:10;;;;;;;3.92;1.20;;;;;;;2.62;100.00;101839.78;5031335;28;20473;-52
2023/03/05 06:33:36;;;;;;;3.95;1.30;;;;;;;2.61;100.00;101834.53;5046833;28;20040;-49
2023/03/05 06:36:03;;;;;;;4.07;1.23;;;;;;;2.60;100.00;101830.19;5036083;28;20443;-50
2023/03/05 06:38:29;;;;;;;2.72;1.10;;;;;;;2.66;100.00;101838.97;5038523;28;20120;-52
2023/03/05 06:40:54;;;;;;;3.17;1.00;;;;;;;2.24;100.00;101765.53;5046416;28;20658;-50
2023/03/05 06:43:19;;;;;;;5.75;1.50;;;;;;;2.62;100.00;101838.91;5034809;28;20339;-52
2023/03/05 06:45:45;;;;;;;7.68;1.70;;;;;;;2.49;100.00;101818.75;5045675;28;20389;-49
2023/03/05 06:48:11;;;;;;;7.07;1.58;;;;;;;2.57;100.00;101823.22;5048019;28;20060;-51
2023/03/05 06:50:37;;;;;;;3.95;1.60;;;;;;;2.56;100.00;101825.81;5051439;28;20063;-52
2023/03/05 06:53:02;;;;;;;5.80;1.70;;;;;;;2.56;100.00;101829.28;5047632;28;20468;-50
2023/03/05 06:55:28;;;;;;;5.88;2.15;;;;;;;2.05;100.00;101746.19;5050209;28;20391;-50
2023/03/05 06:57:53;;;;;;;4.47;1.70;;;;;;;2.45;100.00;101807.44;5049863;28;20041;-49
2023/03/05 07:00:19;;;;;;;6.20;2.00;;;;;;;2.56;100.00;101820.63;5049920;28;20029;-49
2023/03/05 07:02:45;;;;;;;6.88;1.80;;;;;;;2.61;100.00;101817.22;5050036;28;20044;-48
2023/03/05 07:05:10;;;;;;;6.25;2.15;;;;;;;2.65;100.00;101812.97;5051596;28;20440;-51
2023/03/05 07:07:36;;;;;;;7.60;1.83;;;;;;;2.25;100.00;101726.59;5051349;28;20491;-50
2023/03/05 07:10:02;;;;;;;9.38;2.00;;;;;;;2.76;100.00;101795.78;5049897;28;20037;-49
2023/03/05 07:12:27;;;;;;;6.55;2.50;;;;;;;2.86;100.00;101802.00;5051325;28;20025;-47
2023/03/05 07:14:52;;;;;;;4.13;2.53;;;;;;;2.89;100.00;101809.84;5050943;28;20037;-51
2023/03/05 07:17:18;;;;;;;6.47;3.35;;;;;;;2.77;100.00;101794.94;5051213;28;20521;-48
2023/03/05 07:19:43;;;;;;;6.47;2.75;;;;;;;2.43;100.00;101738.97;5050051;28;20067;-49
2023/03/05 07:22:09;;;;;;;10.52;2.53;;;;;;;2.46;100.00;101741.63;5050022;28;20067;-48
2023/03/05 07:24:35;;;;;;;4.28;1.90;;;;;;;2.91;100.00;101809.00;5049490;28;20052;-51
2023/03/05 07:27:00;;;;;;;3.33;1.50;;;;;;;3.08;100.00;101830.94;5033180;28;20123;-53
2023/03/05 07:29:26;;;;;;;5.65;1.58;;;;;;;2.65;100.00;101751.47;5050918;28;20499;-50
2023/03/05 07:31:52;;;;;;;4.78;1.42;;;;;;;3.08;100.00;101815.31;5050933;28;20602;-50
2023/03/05 07:34:17;;;;;;;6.88;1.42;;;;;;;3.11;100.00;101811.88;5050777;28;20116;-50
2023/03/05 07:36:43;;;;;;;7.25;1.83;;;;;;;3.17;100.00;101817.16;5049388;28;20151;-50
2023/03/05 07:39:09;;;;;;;4.80;1.38;;;;;;;2.84;100.00;101740.44;5052590;28;20029;-49
2023/03/05 07:41:34;;;;;;;10.02;1.40;;;;;;;2.98;100.00;101753.63;5034539;28;20072;-49
2023/03/05 07:44:00;;;;;;;3.50;1.40;;;;;;;3.36;100.00;101814.81;5034826;28;20033;-47
2023/03/05 07:46:28;;;;;;;3.83;0.98;;;;;;;2.99;100.00;101734.56;5049362;28;20120;-51
2023/03/05 07:48:54;;;;;;;6.20;0.98;;;;;;;3.18;100.00;101744.31;5034697;28;20090;-53
2023/03/05 07:51:20;;;;;;;3.22;0.88;;;;;;;3.71;100.00;101815.22;5034934;28;20044;-48
2023/03/05 07:53:47;;;;;;;1.83;0.90;;;;;;;3.35;100.00;101732.41;5034704;28;20419;-49
2023/03/05 07:56:13;;;;;;;1.83;0.80;;;;;;;3.35;100.00;101736.75;5036386;28;20040;-54
2023/03/05 07:58:39;;;;;;;3.47;1.13;;;;;;;3.74;100.00;101794.41;5054632;28;20059;-52
2023/03/05 08:01:12;;;;;;;1.33;0.85;;;;;;;3.99;100.00;101811.19;5053324;28;20115;-49
2023/03/05 08:03:38;;;;;;;5.22;1.80;;;;;;;3.65;100.00;101729.22;5053451;28;20031;-50
2023/03/05 08:06:07;;;;;;;3.85;1.48;;;;;;;4.39;100.00;101805.47;5036214;28;20477;-50
2023/03/05 08:08:33;;;;;;;4.40;1.20;;;;;;;4.00;100.00;101705.25;5054400;28;20074;-53
2023/03/05 08:11:04;;;;;;;2.85;0.90;;;;;;;4.71;100.00;101805.69;5053139;28;20418;-50
2023/03/05 08:13:29;;;;;;;2.78;0.75;;;;;;;4.51;100.00;101716.03;5053087;28;20116;-49
2023/03/05 08:15:54;;;;;;;4.63;2.03;;;;;;;5.19;100.00;101789.47;5052248;28;20123;-47
2023/03/05 08:18:19;;;;;;;3.92;1.05;;;;;;;5.38;100.00;101787.78;5054237;28;20377;-48
2023/03/05 08:20:45;;;;;;;4.32;1.13;;;;;;;5.19;100.00;101715.50;5052320;28;20445;-49
2023/03/05 08:23:10;;;;;;;3.97;1.45;;;;;;;5.64;100.00;101801.81;5036321;28;20041;-51
2023/03/05 08:25:37;;;;;;;3.58;0.70;;;;;;;5.70;100.00;101786.16;5053552;28;20041;-53
2023/03/05 08:28:02;;;;;;;2.05;0.70;;;;;;;5.33;100.00;101721.66;5053903;28;20391;-51
2023/03/05 08:30:28;;;;;;;8.07;1.55;;;;;;;5.86;100.00;101801.06;5053772;28;20116;-51
2023/03/05 08:32:53;;;;;;;4.85;1.60;;;;;;;5.90;100.00;101800.16;5054029;28;20049;-48
2023/03/05 08:35:20;;;;;;;3.88;1.40;;;;;;;5.91;100.00;101798.44;5035802;28;20063;-48
2023/03/05 08:37:45;;;;;;;5.57;0.93;;;;;;;5.92;100.00;101788.00;5053717;28;20086;-51
2023/03/05 08:40:11;;;;;;;5.15;1.30;;;;;;;5.51;100.00;101721.69;5051693;28;20443;-52
2023/03/05 08:42:36;;;;;;;3.28;1.08;;;;;;;5.90;100.00;101787.09;5053653;28;20079;-50
2023/03/05 08:45:02;;;;;;;4.47;1.13;;;;;;;5.37;100.00;101718.19;5053292;28;20605;-52
2023/03/05 08:47:27;;;;;;;6.28;1.20;;;;;;;5.76;100.00;101782.69;5053710;28;20463;-49
2023/03/05 08:49:57;;;;;;;2.72;0.80;;;;;;;5.71;100.00;101782.69;5051826;28;20037;-47
2023/03/05 08:52:22;;;;;;;1.38;0.60;;;;;;;5.44;100.00;101694.69;5053486;28;20086;-50
2023/03/05 08:54:48;;;;;;;4.93;1.80;;;;;;;5.88;100.00;101715.69;5051628;28;20134;-50
2023/03/05 08:57:13;;;;;;;1.77;1.15;;;;;;;6.09;100.00;101713.09;5053382;28;20044;-52
2023/03/05 08:59:38;;;;;;;2.15;0.70;;;;;;;6.53;100.00;101733.09;5053398;28;20032;-51
2023/03/05 09:02:04;;;;;;;4.70;0.80;;;;;;;7.00;100.00;101785.31;5053590;28;20425;-52
2023/03/05 09:04:29;;;;;;;4.45;1.60;;;;;;;6.87;100.00;101766.16;5053253;28;20040;-52
2023/03/05 09:06:56;;;;;;;3.15;1.65;;;;;;;6.84;100.00;101805.41;5052860;28;20045;-50
2023/03/05 09:09:22;;;;;;;5.68;0.88;;;;;;;6.47;100.00;101798.47;5051714;28;20503;-50
2023/03/05 09:11:48;;;;;;;1.95;0.80;;;;;;;6.21;100.00;101803.72;5051819;28;20041;-51
2023/03/05 09:14:13;;;;;;;2.03;0.63;;;;;;;6.12;100.00;101796.72;5051053;28;20099;-49
2023/03/05 09:16:39;;;;;;;2.55;0.73;;;;;;;5.93;100.00;101794.06;5036636;28;20432;-51
2023/03/05 09:19:07;;;;;;;1.65;0.85;;;;;;;5.43;100.00;101726.03;5032218;28;20064;-47
2023/03/05 09:21:33;;;;;;;3.20;0.82;;;;;;;5.34;100.00;101700.75;5033092;28;20112;-51
2023/03/05 09:23:59;;;;;;;4.32;1.00;;;;;;;5.88;100.00;101782.75;5032758;28;20156;-51
2023/03/05 09:26:25;;;;;;;2.78;1.00;;;;;;;5.87;100.00;101779.25;5033054;28;20033;-53
2023/03/05 09:28:50;;;;;;;1.83;0.68;;;;;;;5.85;100.00;101767.03;5032603;28;20044;-52
2023/03/05 09:31:16;;;;;;;3.72;0.60;;;;;;;5.82;100.00;101756.56;5035980;28;20104;-49
2023/03/05 09:33:41;;;;;;;1.75;0.55;;;;;;;6.05;100.00;101776.69;5052841;28;20094;-50
2023/03/05 09:36:24;;;;;;;4.25;0.98;;;;;;;6.17;100.00;101789.75;5052780;28;20041;-50
2023/03/05 09:38:49;;;;;;;1.85;0.85;;;;;;;6.13;100.00;101771.44;5052672;28;20478;-49
2023/03/05 09:41:18;;;;;;;3.65;0.70;;;;;;;6.31;100.00;101791.50;5034256;28;20074;-54
2023/03/05 09:43:48;;;;;;;2.58;0.80;;;;;;;6.36;100.00;101781.94;5052639;28;20036;-53
2023/03/05 09:46:40;;;;;;;2.03;0.70;;;;;;;6.47;100.00;101777.56;5051047;28;20602;-50
2023/03/05 09:49:12;;;;;;;3.60;0.90;;;;;;;6.56;100.00;101767.09;5052520;28;20036;-51
2023/03/05 09:51:39;;;;;;;2.50;0.70;;;;;;;6.61;100.00;101771.44;5052311;28;20035;-51
2023/03/05 09:54:28;;;;;;;2.40;0.65;;;;;;;6.21;100.00;101681.72;5051061;28;20032;-47
2023/03/05 09:56:58;;;;;;;2.75;1.00;;;;;;;6.65;100.00;101748.75;5052543;28;20043;-50
2023/03/05 09:59:50;;;;;;;1.95;0.68;;;;;;;6.97;100.00;101780.09;5051236;28;20086;-50
2023/03/05 10:02:20;;;;;;;2.47;1.10;;;;;;;6.98;100.00;101758.25;5051071;28;20388;-50
2023/03/05 10:04:56;;;;;;;3.70;0.98;;;;;;;7.21;100.00;101774.75;5049885;28;20107;-46
2023/03/05 10:07:33;;;;;;;2.75;0.93;;;;;;;6.86;100.00;101687.66;5051005;28;20491;-52
2023/03/05 10:10:02;;;;;;;3.28;1.10;;;;;;;7.24;100.00;101762.53;5052045;28;20515;-50
2023/03/05 10:12:50;;;;;;;1.98;0.93;;;;;;;7.23;100.00;101779.13;5051281;28;20407;-51
2023/03/05 10:15:43;;;;;;;4.00;0.88;;;;;;;6.95;100.00;101771.34;5050605;28;20037;-52
2023/03/05 10:18:26;;;;;;;2.38;1.13;;;;;;;6.95;100.00;101772.22;5047706;28;20451;-53
2023/03/05 10:21:01;;;;;;;2.95;0.70;;;;;;;6.94;100.00;101772.25;5049470;28;20111;-53
2023/03/05 10:23:43;;;;;;;3.10;1.13;;;;;;;6.56;100.00;101678.16;5051686;28;20049;-52
2023/03/05 10:26:27;;;;;;;2.53;1.02;;;;;;;7.23;100.00;101767.78;5050678;28;20029;-49
2023/03/05 10:29:03;;;;;;;2.88;0.60;;;;;;;7.52;100.00;101742.31;5051510;28;20104;-51
2023/03/05 10:32:01;;;;;;;1.10;0.50;;;;;;;7.44;100.00;101689.13;5051513;28;20111;-49
2023/03/05 10:35:03;;;;;;;3.33;0.65;;;;;;;8.19;100.00;101753.22;5031879;28;20068;-52
2023/03/05 10:37:53;;;;;;;1.95;0.63;;;;;;;8.42;100.00;101751.31;5050118;28;20032;-49
2023/03/05 10:40:20;;;;;;;1.63;0.63;;;;;;;8.65;100.00;101755.44;5051642;28;20028;-51
2023/03/05 10:42:51;;;;;;;2.03;0.90;;;;;;;9.05;100.00;101744.50;5050231;28;20029;-51
2023/03/05 10:45:20;;;;;;;11.73;2.35;;;;;;;9.51;100.00;101747.44;5051404;28;20115;-51
2023/03/05 10:48:05;;;;;;;1.55;0.60;;;;;;;9.67;100.00;101728.78;5050009;28;20031;-50
2023/03/05 10:50:37;;;;;;;0.93;0.40;;;;;;;9.84;100.00;101735.53;5051530;28;20053;-46
2023/03/05 10:53:09;;;;;;;2.83;0.65;;;;;;;10.34;100.00;101776.00;5050403;28;20071;-50
2023/03/05 10:55:35;;;;;;;3.22;1.10;;;;;;;10.66;100.00;101761.38;5051392;28;20044;-53
2023/03/05 10:58:09;;;;;;;2.70;1.05;;;;;;;10.35;100.00;101733.88;5051347;28;20067;-49
2023/03/05 11:00:35;;;;;;;2.30;0.60;;;;;;;10.37;100.00;101718.91;5049837;28;20313;-56
2023/03/05 11:03:05;;;;;;;2.65;0.80;;;;;;;10.68;100.00;101748.22;5051554;28;20037;-53
2023/03/05 11:05:37;;;;;;;1.75;0.50;;;;;;;11.10;100.00;101750.00;5051565;28;20075;-55
2023/03/05 11:08:34;;;;;;;3.17;0.73;;;;;;;11.52;100.00;101745.63;5051329;28;20368;-57
2023/03/05 11:11:08;;;;;;;2.28;0.65;;;;;;;11.38;100.00;101746.81;5048295;28;20041;-54
2023/03/05 11:13:36;;;;;;;2.25;0.45;;;;;;;11.06;100.00;101661.38;5052264;28;20051;-57
2023/03/05 11:16:05;;;;;;;2.70;0.70;;;;;;;11.09;100.00;101668.38;5053791;28;20021;-59
2023/03/05 11:18:33;;;;;;;2.83;0.60;;;;;;;10.80;100.00;101723.41;5052884;28;20107;-54
2023/03/05 11:21:31;;;;;;;1.23;0.45;;;;;;;10.15;100.00;101704.41;5037726;28;20087;-54
2023/03/05 11:24:03;;;;;;;1.52;0.50;;;;;;;9.97;100.00;101700.28;5031273;28;20561;-55
2023/03/05 11:26:29;;;;;;;1.85;0.55;;;;;;;9.70;100.00;101694.56;5054754;28;20036;-54